Time;durP1;ratioP1;P1;durP2;ratioP2;P2;SDS_P1;SDS_P2;PMS_P1;PMS_P2;Temp;Humidity;BMP_temperature;BMP_pressure;BME280_temperature;BME280_humidity;BME280_pressure;Samples;Min_cycle;Max_cycle;Signal;HPM_P1;HPM_P2
2022/01/29 00:01:06;;;;;;;36.53;15.93;;;6.80;99.90;;;;;;5041478;28;20050;-61
2022/01/29 00:03:32;;;;;;;33.97;14.90;;;6.80;99.90;;;;;;5041857;28;20038;-61
2022/01/29 00:05:59;;;;;;;35.65;16.60;;;6.80;99.90;;;;;;5040021;28;20056;-61
2022/01/29 00:08:25;;;;;;;29.55;14.10;;;6.80;99.90;;;;;;5041666;28;20057;-61
2022/01/29 00:11:01;;;;;;;32.00;14.52;;;6.90;99.90;;;;;;5040360;28;20038;-61
2022/01/29 00:13:27;;;;;;;35.55;13.85;;;6.90;99.90;;;;;;5039945;28;20053;-61
2022/01/29 00:15:52;;;;;;;34.55;13.98;;;6.90;99.90;;;;;;5041350;28;20114;-61
2022/01/29 00:18:18;;;;;;;34.40;13.77;;;6.90;99.90;;;;;;5041698;28;20152;-61
2022/01/29 00:20:44;;;;;;;34.07;13.17;;;6.90;99.90;;;;;;5041729;28;20295;-61
2022/01/29 00:23:10;;;;;;;30.50;13.83;;;6.90;99.90;;;;;;5041402;28;20097;-61
2022/01/29 00:25:35;;;;;;;33.67;14.15;;;7.00;99.90;;;;;;5039974;28;20065;-61
2022/01/29 00:28:01;;;;;;;40.15;13.82;;;7.00;99.90;;;;;;5043464;28;20081;-61
2022/01/29 00:30:36;;;;;;;29.20;14.37;;;7.00;99.90;;;;;;5044070;28;20079;-61
2022/01/29 00:33:01;;;;;;;35.35;13.73;;;7.00;99.90;;;;;;5028230;28;20300;-61
2022/01/29 00:35:27;;;;;;;31.07;15.00;;;7.00;99.90;;;;;;5043999;28;20121;-62
2022/01/29 00:37:53;;;;;;;30.98;15.35;;;7.00;99.90;;;;;;5044336;28;20057;-61
2022/01/29 00:40:21;;;;;;;38.22;15.80;;;7.00;99.90;;;;;;5045233;28;20142;-61
2022/01/29 00:42:48;;;;;;;41.10;15.70;;;7.00;99.90;;;;;;5043749;28;20057;-61
2022/01/29 00:45:14;;;;;;;36.42;15.63;;;7.00;99.90;;;;;;5043487;28;20255;-61
2022/01/29 00:47:39;;;;;;;33.75;15.73;;;7.00;99.90;;;;;;5043718;28;20105;-61
2022/01/29 00:50:06;;;;;;;31.27;15.70;;;7.00;99.90;;;;;;5043865;28;20076;-61
2022/01/29 00:52:31;;;;;;;38.28;16.00;;;7.00;99.90;;;;;;5027043;28;20053;-61
2022/01/29 00:54:57;;;;;;;34.47;15.48;;;7.00;99.90;;;;;;5043822;28;20063;-61
2022/01/29 00:57:24;;;;;;;28.95;15.68;;;7.00;99.90;;;;;;5043481;28;20049;-61
2022/01/29 00:59:49;;;;;;;;;;;7.10;99.90;;;;;;5043544;28;20076;-61
2022/01/29 01:02:15;;;;;;;36.53;15.05;;;7.00;99.90;;;;;;5043539;28;19996;-61
2022/01/29 01:04:41;;;;;;;33.50;15.30;;;7.10;99.90;;;;;;5043746;28;20053;-61
2022/01/29 01:07:08;;;;;;;34.55;15.18;;;7.10;99.90;;;;;;5043398;28;20076;-61
2022/01/29 01:09:34;;;;;;;30.40;15.48;;;7.10;99.90;;;;;;5043245;28;20083;-61
2022/01/29 01:12:00;;;;;;;33.05;16.95;;;7.20;99.90;;;;;;5042736;28;20448;-61
2022/01/29 01:14:26;;;;;;;31.90;15.55;;;7.20;99.90;;;;;;5043532;28;20103;-62
2022/01/29 01:16:52;;;;;;;36.10;16.70;;;7.20;99.90;;;;;;5043109;28;20084;-61
2022/01/29 01:19:17;;;;;;;31.43;15.37;;;7.20;99.90;;;;;;5044720;28;20037;-61
2022/01/29 01:21:43;;;;;;;37.27;16.50;;;7.20;99.90;;;;;;5026689;28;20060;-61
2022/01/29 01:24:09;;;;;;;40.65;17.52;;;7.20;99.90;;;;;;5042660;28;20469;-61
2022/01/29 01:26:35;;;;;;;38.20;17.67;;;7.20;99.90;;;;;;5043082;28;20069;-61
2022/01/29 01:29:00;;;;;;;39.00;17.53;;;7.20;99.90;;;;;;5044749;28;20082;-61
2022/01/29 01:31:26;;;;;;;37.00;17.23;;;7.30;99.90;;;;;;5044364;28;20080;-61
2022/01/29 01:33:52;;;;;;;36.07;15.83;;;7.20;99.90;;;;;;5042724;28;20060;-61
2022/01/29 01:36:22;;;;;;;41.13;16.70;;;7.30;99.90;;;;;;5044819;28;20304;-61
2022/01/29 01:39:02;;;;;;;38.83;16.70;;;7.30;99.90;;;;;;5042014;28;20057;-62
2022/01/29 01:41:30;;;;;;;42.17;18.27;;;7.30;99.90;;;;;;5043344;28;20105;-62
2022/01/29 01:44:03;;;;;;;36.97;17.02;;;7.40;99.90;;;;;;5042247;28;20109;-61
2022/01/29 01:46:28;;;;;;;43.92;18.45;;;7.40;99.90;;;;;;5044441;28;20120;-61
2022/01/29 01:48:55;;;;;;;37.03;16.60;;;7.40;99.90;;;;;;5044191;28;20041;-61
2022/01/29 01:51:21;;;;;;;44.13;16.50;;;7.40;99.90;;;;;;5044408;28;20124;-62
2022/01/29 01:53:47;;;;;;;38.80;17.23;;;7.40;99.90;;;;;;5042430;28;20485;-61
2022/01/29 01:56:13;;;;;;;39.38;18.10;;;7.40;99.90;;;;;;5042388;28;20049;-61
2022/01/29 01:58:39;;;;;;;43.83;18.73;;;7.40;99.90;;;;;;5042871;28;20100;-61
2022/01/29 02:01:05;;;;;;;40.33;18.08;;;7.40;99.90;;;;;;5042050;28;20061;-61
2022/01/29 02:03:31;;;;;;;38.83;17.35;;;7.50;99.90;;;;;;5042161;28;20045;-61
2022/01/29 02:05:57;;;;;;;44.30;17.75;;;7.40;99.90;;;;;;5042466;28;20196;-61
2022/01/29 02:08:24;;;;;;;;;;;7.50;99.90;;;;;;5043109;28;20131;-61
2022/01/29 02:10:50;;;;;;;49.47;18.00;;;7.40;99.90;;;;;;5043496;28;20004;-61
2022/01/29 02:13:16;;;;;;;;;;;7.50;99.90;;;;;;5026414;28;20488;-62
2022/01/29 02:15:42;;;;;;;44.55;17.02;;;7.50;99.90;;;;;;5041510;28;19921;-62
2022/01/29 02:18:15;;;;;;;41.90;17.67;;;7.50;99.90;;;;;;5043994;28;20037;-61
2022/01/29 02:20:43;;;;;;;41.47;18.15;;;7.50;99.90;;;;;;5041213;28;20084;-61
2022/01/29 02:23:09;;;;;;;41.83;16.23;;;7.50;99.90;;;;;;5023339;28;20038;-61
2022/01/29 02:25:36;;;;;;;42.80;16.38;;;7.50;99.90;;;;;;5037826;28;20169;-61
2022/01/29 02:28:14;;;;;;;46.88;16.25;;;7.50;99.90;;;;;;5043789;28;20117;-61
2022/01/29 02:30:48;;;;;;;38.80;16.70;;;7.50;99.90;;;;;;5043196;28;20060;-62
2022/01/29 02:33:16;;;;;;;36.03;16.45;;;7.60;99.90;;;;;;5041982;28;20159;-62
2022/01/29 02:35:46;;;;;;;39.58;16.05;;;7.60;99.90;;;;;;5042787;28;20041;-61
2022/01/29 02:38:13;;;;;;;39.22;15.68;;;7.60;99.90;;;;;;5033668;28;20049;-62
2022/01/29 02:40:49;;;;;;;45.08;15.43;;;7.60;99.90;;;;;;5041627;28;20063;-61
2022/01/29 02:43:18;;;;;;;36.70;15.27;;;7.70;99.90;;;;;;5043272;28;20101;-61
2022/01/29 02:45:45;;;;;;;34.30;15.05;;;7.60;99.90;;;;;;5040833;28;20053;-61
2022/01/29 02:48:11;;;;;;;38.20;15.85;;;7.70;99.90;;;;;;5043327;28;20048;-61
2022/01/29 02:50:38;;;;;;;47.80;15.75;;;7.70;99.90;;;;;;5042681;28;20117;-61
2022/01/29 02:53:04;;;;;;;32.85;15.15;;;7.70;99.90;;;;;;5043248;28;20115;-62
2022/01/29 02:55:30;;;;;;;36.70;15.60;;;7.70;99.90;;;;;;5042269;28;20045;-61
2022/01/29 02:57:56;;;;;;;29.33;14.65;;;7.70;99.90;;;;;;5041391;28;20053;-61
2022/01/29 03:00:22;;;;;;;;;;;7.80;99.90;;;;;;5043065;28;20345;-62
2022/01/29 03:02:48;;;;;;;37.47;14.07;;;7.70;99.90;;;;;;5042729;28;19921;-61
2022/01/29 03:05:13;;;;;;;34.22;16.08;;;7.70;99.90;;;;;;5042427;28;20045;-61
2022/01/29 03:07:39;;;;;;;33.70;15.00;;;7.80;99.90;;;;;;5041313;28;20053;-61
2022/01/29 03:10:06;;;;;;;34.13;14.73;;;7.80;99.90;;;;;;5040502;28;20078;-61
2022/01/29 03:12:33;;;;;;;41.65;16.60;;;7.80;99.90;;;;;;5041404;28;20296;-61
2022/01/29 03:14:58;;;;;;;38.08;16.52;;;7.90;99.90;;;;;;5042414;28;20088;-62
2022/01/29 03:17:24;;;;;;;41.38;17.00;;;7.90;99.90;;;;;;5042150;28;20071;-61
2022/01/29 03:19:53;;;;;;;37.83;16.10;;;7.90;99.90;;;;;;5041027;28;20045;-62
2022/01/29 03:22:19;;;;;;;38.50;15.38;;;7.90;99.90;;;;;;5041025;28;20512;-62
2022/01/29 03:24:45;;;;;;;28.70;15.60;;;7.90;99.90;;;;;;5042114;28;20431;-61
2022/01/29 03:27:11;;;;;;;33.42;15.35;;;7.90;99.90;;;;;;5042452;28;20045;-61
2022/01/29 03:29:37;;;;;;;36.10;15.88;;;7.90;99.90;;;;;;5042349;28;20044;-61
2022/01/29 03:32:04;;;;;;;34.78;15.10;;;7.90;99.90;;;;;;5040746;28;20056;-62
2022/01/29 03:34:30;;;;;;;34.17;15.43;;;7.90;99.90;;;;;;5042231;28;20131;-61
2022/01/29 03:36:56;;;;;;;38.92;16.20;;;7.90;99.90;;;;;;5040893;28;20058;-61
2022/01/29 03:39:25;;;;;;;34.25;14.35;;;8.00;99.90;;;;;;5042152;28;20075;-61
2022/01/29 03:41:50;;;;;;;29.63;15.05;;;7.90;99.90;;;;;;5024189;28;20037;-62
2022/01/29 03:44:16;;;;;;;34.63;15.65;;;8.00;99.90;;;;;;5040444;28;20052;-61
2022/01/29 03:46:42;;;;;;;35.03;15.40;;;8.00;99.90;;;;;;5040596;28;20104;-61
2022/01/29 03:49:08;;;;;;;34.80;15.57;;;8.00;99.90;;;;;;5040291;28;20037;-62
2022/01/29 03:51:34;;;;;;;30.70;14.73;;;8.00;99.90;;;;;;5040755;28;20061;-61
2022/01/29 03:53:59;;;;;;;32.50;14.40;;;8.00;99.90;;;;;;5042430;28;20069;-61
2022/01/29 03:56:25;;;;;;;31.00;15.17;;;8.00;99.90;;;;;;5023547;28;20049;-61
2022/01/29 03:58:51;;;;;;;36.13;15.90;;;8.00;99.90;;;;;;5042204;28;20295;-61
2022/01/29 04:01:16;;;;;;;30.03;15.87;;;8.10;99.90;;;;;;5040038;28;20412;-62
2022/01/29 04:03:42;;;;;;;35.03;15.30;;;8.10;99.90;;;;;;5040099;28;20152;-61
2022/01/29 04:06:08;;;;;;;29.23;15.20;;;8.10;99.90;;;;;;5040009;28;20196;-62
2022/01/29 04:08:40;;;;;;;30.80;15.70;;;8.10;99.90;;;;;;5040593;28;20300;-62
2022/01/29 04:11:07;;;;;;;37.90;16.17;;;8.10;99.90;;;;;;5039696;28;20144;-61
2022/01/29 04:13:33;;;;;;;37.97;15.95;;;8.10;99.90;;;;;;5040397;28;20045;-61
2022/01/29 04:15:58;;;;;;;36.33;16.33;;;8.10;99.90;;;;;;5039641;28;20441;-62
2022/01/29 04:18:24;;;;;;;32.67;15.77;;;8.10;99.90;;;;;;5057285;28;20053;-61
2022/01/29 04:20:50;;;;;;;34.00;15.27;;;8.10;99.90;;;;;;5041421;28;20305;-61
2022/01/29 04:23:15;;;;;;;30.57;15.73;;;8.10;99.90;;;;;;5024086;28;20296;-62
2022/01/29 04:25:41;;;;;;;33.25;16.85;;;8.10;99.90;;;;;;5056144;28;20050;-62
2022/01/29 04:28:10;;;;;;;30.47;16.20;;;8.10;99.90;;;;;;5040338;28;20053;-62
2022/01/29 04:30:44;;;;;;;33.13;14.95;;;8.20;99.90;;;;;;5041066;28;20379;-62
2022/01/29 04:35:49;;;;;;;31.15;16.00;;;8.10;99.90;;;;;;5041325;28;20104;-61
2022/01/29 04:38:15;;;;;;;34.83;15.52;;;8.20;99.90;;;;;;5040229;28;20053;-61
2022/01/29 04:40:42;;;;;;;28.95;16.38;;;8.20;99.90;;;;;;5039995;28;20105;-62
2022/01/29 04:43:07;;;;;;;29.25;17.05;;;8.20;99.90;;;;;;5041585;28;20510;-62
2022/01/29 04:45:33;;;;;;;37.57;16.70;;;8.20;99.90;;;;;;5039365;28;20069;-62
2022/01/29 04:47:59;;;;;;;24.00;15.13;;;8.20;99.90;;;;;;5040361;28;20379;-62
2022/01/29 04:50:25;;;;;;;32.33;16.65;;;8.20;99.90;;;;;;5041338;28;20292;-62
2022/01/29 04:52:51;;;;;;;31.75;16.45;;;8.20;99.90;;;;;;5023682;28;20455;-62
2022/01/29 04:55:17;;;;;;;35.40;17.00;;;8.20;99.90;;;;;;5052365;28;20117;-62
2022/01/29 04:57:43;;;;;;;33.10;16.53;;;8.30;99.90;;;;;;5041329;28;20054;-61
2022/01/29 05:00:11;;;;;;;37.88;16.02;;;8.30;99.90;;;;;;5039778;28;20080;-61
2022/01/29 05:02:38;;;;;;;31.85;17.63;;;8.30;99.90;;;;;;5041120;28;20053;-61
2022/01/29 05:05:04;;;;;;;;;;;8.30;99.90;;;;;;5041712;28;20097;-61
2022/01/29 05:07:30;;;;;;;29.55;15.98;;;8.20;99.90;;;;;;5041273;28;19921;-61
2022/01/29 05:09:56;;;;;;;31.42;16.05;;;8.30;99.90;;;;;;5039702;28;20076;-61
2022/01/29 05:12:28;;;;;;;33.23;17.37;;;8.30;99.90;;;;;;5023284;28;20109;-62
2022/01/29 05:28:52;;;;;;;31.48;15.98;;;8.40;99.90;;;;;;5064854;28;20048;-61
2022/01/29 05:31:18;;;;;;;33.03;16.13;;;8.40;99.90;;;;;;5069767;28;20048;-61
2022/01/29 05:33:43;;;;;;;28.52;15.63;;;8.40;99.90;;;;;;5063576;28;20106;-61
2022/01/29 05:36:09;;;;;;;33.20;17.30;;;8.40;99.90;;;;;;5071555;28;20045;-62
2022/01/29 05:38:35;;;;;;;30.30;16.17;;;8.40;99.90;;;;;;5062158;28;20299;-62
2022/01/29 05:41:03;;;;;;;35.60;17.33;;;8.40;99.90;;;;;;5052887;28;20047;-62
2022/01/29 05:43:29;;;;;;;30.38;16.38;;;8.40;99.90;;;;;;5065511;28;20056;-62
2022/01/29 05:45:54;;;;;;;29.35;17.02;;;8.40;99.90;;;;;;5072942;28;20560;-61
2022/01/29 05:48:20;;;;;;;35.95;16.92;;;8.50;99.90;;;;;;5061628;28;20104;-61
2022/01/29 05:50:46;;;;;;;28.80;15.80;;;8.40;99.90;;;;;;5052305;28;20055;-62
2022/01/29 05:53:12;;;;;;;29.63;17.47;;;8.40;99.90;;;;;;5042841;28;20069;-62
2022/01/29 05:55:37;;;;;;;33.25;16.83;;;8.50;99.90;;;;;;5043669;28;20342;-62
2022/01/29 05:58:03;;;;;;;32.73;17.20;;;8.40;99.90;;;;;;5042610;28;20132;-62
2022/01/29 06:00:29;;;;;;;26.75;15.93;;;8.50;99.90;;;;;;5038916;28;20176;-62
2022/01/29 06:03:03;;;;;;;25.88;15.60;;;8.50;99.90;;;;;;5023020;28;20053;-62
2022/01/29 06:05:29;;;;;;;30.77;16.63;;;8.50;99.90;;;;;;5029039;28;20044;-61
2022/01/29 06:07:55;;;;;;;28.55;16.65;;;8.50;99.90;;;;;;5058482;28;20128;-62
2022/01/29 06:10:21;;;;;;;33.28;17.80;;;8.50;99.90;;;;;;5041893;28;20054;-61
2022/01/29 06:12:57;;;;;;;29.05;16.55;;;8.50;99.90;;;;;;5056904;28;20067;-61
2022/01/29 06:15:23;;;;;;;29.58;16.27;;;8.50;99.90;;;;;;5043861;28;20439;-61
2022/01/29 06:17:49;;;;;;;29.17;17.40;;;8.50;99.90;;;;;;5041546;28;20057;-62
2022/01/29 06:20:14;;;;;;;25.23;15.83;;;8.60;99.90;;;;;;5043732;28;20276;-61
2022/01/29 06:22:43;;;;;;;29.03;16.83;;;8.60;99.90;;;;;;5043976;28;20080;-62
2022/01/29 06:25:09;;;;;;;33.15;16.58;;;8.60;99.90;;;;;;5042727;28;20068;-62
2022/01/29 06:27:35;;;;;;;28.85;15.65;;;8.60;99.90;;;;;;5041524;28;20183;-62
2022/01/29 06:30:01;;;;;;;31.95;15.43;;;8.60;99.90;;;;;;5039741;28;20112;-61
2022/01/29 06:32:27;;;;;;;23.80;15.25;;;8.60;99.90;;;;;;5042977;28;20049;-62
2022/01/29 06:34:52;;;;;;;32.10;15.10;;;8.60;99.90;;;;;;5042180;28;20049;-61
2022/01/29 06:37:18;;;;;;;31.15;16.10;;;8.60;99.90;;;;;;5042847;28;20041;-61
2022/01/29 06:39:44;;;;;;;27.60;15.07;;;8.60;99.90;;;;;;5043176;28;20693;-61
2022/01/29 06:42:11;;;;;;;25.80;14.80;;;8.70;99.90;;;;;;5043367;28;20049;-62
2022/01/29 06:44:36;;;;;;;25.10;14.52;;;8.70;99.90;;;;;;5041853;28;20187;-61
2022/01/29 06:47:03;;;;;;;30.15;16.00;;;8.70;99.90;;;;;;5041317;28;20086;-62
2022/01/29 06:49:28;;;;;;;31.75;14.52;;;8.70;99.90;;;;;;5043057;28;20086;-62
2022/01/29 06:51:54;;;;;;;21.73;14.30;;;8.70;99.90;;;;;;5041210;28;20051;-61
2022/01/29 06:54:20;;;;;;;35.58;15.55;;;8.70;99.90;;;;;;5043479;28;20048;-61
2022/01/29 06:56:46;;;;;;;24.25;14.15;;;8.70;99.90;;;;;;5040697;28;20045;-61
2022/01/29 06:59:11;;;;;;;26.07;14.87;;;8.70;99.90;;;;;;5041352;28;20091;-61
2022/01/29 07:01:37;;;;;;;24.97;14.70;;;8.70;99.90;;;;;;5041120;28;20056;-62
2022/01/29 07:04:03;;;;;;;27.88;15.02;;;8.70;99.90;;;;;;5041435;28;20340;-61
2022/01/29 07:06:29;;;;;;;28.25;15.82;;;8.60;99.90;;;;;;5042836;28;20037;-61
2022/01/29 07:08:55;;;;;;;26.98;15.75;;;8.70;99.90;;;;;;5042648;28;20098;-62
2022/01/29 07:11:23;;;;;;;29.63;15.32;;;8.60;99.90;;;;;;5024537;28;20089;-62
2022/01/29 07:13:51;;;;;;;25.67;14.48;;;8.60;99.90;;;;;;5042838;28;20416;-62
2022/01/29 07:16:17;;;;;;;27.65;16.13;;;8.70;99.90;;;;;;5040575;28;20396;-61
2022/01/29 07:18:42;;;;;;;32.95;15.63;;;8.60;99.90;;;;;;5042356;28;20041;-62
2022/01/29 07:21:09;;;;;;;27.20;16.20;;;8.70;99.90;;;;;;5042400;28;20172;-61
2022/01/29 07:23:34;;;;;;;27.35;15.20;;;8.70;99.90;;;;;;5042537;28;20292;-61
2022/01/29 07:26:00;;;;;;;26.58;15.57;;;8.70;99.90;;;;;;5042020;28;20053;-61
2022/01/29 07:28:26;;;;;;;27.40;14.33;;;8.70;99.90;;;;;;5042501;28;20057;-61
2022/01/29 07:30:52;;;;;;;25.67;14.20;;;8.70;99.90;;;;;;5039760;28;20307;-62
2022/01/29 07:33:17;;;;;;;26.75;14.23;;;8.70;99.90;;;;;;5024759;28;20123;-62
2022/01/29 07:35:43;;;;;;;30.13;14.20;;;8.70;99.90;;;;;;5040037;28;20057;-62
2022/01/29 07:38:09;;;;;;;24.58;14.02;;;8.70;99.90;;;;;;5040808;28;20117;-62
2022/01/29 07:40:34;;;;;;;31.00;13.73;;;8.70;99.90;;;;;;5039851;28;20112;-61
2022/01/29 07:43:00;;;;;;;25.25;14.20;;;8.70;99.90;;;;;;5040133;28;20082;-61
2022/01/29 07:45:26;;;;;;;27.73;13.83;;;8.70;99.90;;;;;;5041489;28;20095;-61
2022/01/29 07:47:52;;;;;;;26.23;13.52;;;8.70;99.90;;;;;;5040181;28;20398;-61
2022/01/29 07:50:18;;;;;;;24.60;14.23;;;8.70;99.90;;;;;;5039775;28;20481;-62
2022/01/29 07:52:43;;;;;;;24.00;12.85;;;8.70;99.90;;;;;;5041690;28;20126;-63
2022/01/29 07:55:09;;;;;;;23.07;13.60;;;8.70;99.90;;;;;;5040036;28;20070;-61
2022/01/29 07:57:35;;;;;;;26.80;13.30;;;8.70;99.90;;;;;;5042062;28;20045;-61
2022/01/29 08:00:00;;;;;;;25.67;13.63;;;8.70;99.90;;;;;;5036726;28;20136;-61
2022/01/29 08:02:26;;;;;;;23.60;13.65;;;8.70;99.90;;;;;;5038310;28;20158;-61
2022/01/29 08:04:52;;;;;;;28.40;14.27;;;8.70;99.90;;;;;;5024128;28;20117;-61
2022/01/29 08:07:17;;;;;;;25.77;12.87;;;8.70;99.90;;;;;;5042151;28;20437;-61
2022/01/29 08:09:43;;;;;;;26.07;12.40;;;8.70;99.90;;;;;;5040285;28;20411;-61
2022/01/29 08:12:09;;;;;;;23.07;12.33;;;8.70;99.90;;;;;;5041173;28;20125;-61
2022/01/29 08:14:35;;;;;;;23.92;12.95;;;8.70;99.90;;;;;;5041442;28;20296;-62
2022/01/29 08:17:00;;;;;;;29.37;12.33;;;8.70;99.90;;;;;;5023601;28;20111;-61
2022/01/29 08:19:26;;;;;;;21.30;11.17;;;8.70;99.90;;;;;;5041936;28;20457;-60
2022/01/29 08:21:52;;;;;;;21.67;11.03;;;8.70;99.90;;;;;;5041790;28;20495;-60
2022/01/29 08:24:17;;;;;;;23.57;11.77;;;8.80;99.90;;;;;;5041874;28;20037;-61
2022/01/29 08:26:43;;;;;;;18.47;10.53;;;8.80;99.90;;;;;;5039962;28;20129;-61
2022/01/29 08:29:09;;;;;;;19.40;10.88;;;8.80;99.90;;;;;;5023022;28;20049;-62
2022/01/29 08:31:34;;;;;;;22.37;9.83;;;8.80;99.90;;;;;;5041226;28;20106;-62
2022/01/29 08:34:01;;;;;;;25.92;12.25;;;8.80;99.90;;;;;;5042007;28;20441;-70
2022/01/29 08:36:27;;;;;;;16.90;9.88;;;8.90;99.90;;;;;;5040051;28;20045;-63
2022/01/29 08:38:52;;;;;;;21.40;10.07;;;8.90;99.90;;;;;;5040211;28;20118;-64
2022/01/29 08:41:18;;;;;;;22.90;9.73;;;8.90;99.90;;;;;;5040286;28;20379;-63
2022/01/29 08:43:44;;;;;;;19.20;9.55;;;8.90;99.90;;;;;;5041903;28;20566;-63
2022/01/29 08:46:10;;;;;;;18.58;9.55;;;8.90;99.90;;;;;;5023179;28;20045;-63
2022/01/29 08:48:35;;;;;;;17.40;8.75;;;9.00;99.90;;;;;;5041142;28;20076;-63
2022/01/29 08:51:01;;;;;;;21.65;9.32;;;9.00;99.90;;;;;;5045506;28;20049;-64
2022/01/29 08:53:27;;;;;;;13.93;8.50;;;9.10;99.90;;;;;;5044144;28;20079;-64
2022/01/29 08:55:53;;;;;;;14.40;8.27;;;9.10;99.90;;;;;;5027691;28;20148;-64
2022/01/29 08:58:19;;;;;;;17.05;8.10;;;9.10;99.90;;;;;;5027285;28;20077;-63
2022/01/29 09:00:46;;;;;;;14.70;7.50;;;9.20;99.90;;;;;;5044788;28;20073;-63
2022/01/29 09:03:14;;;;;;;12.70;6.95;;;9.20;99.90;;;;;;5045636;28;20048;-63
2022/01/29 09:05:41;;;;;;;16.23;8.05;;;9.30;99.90;;;;;;5045457;28;20041;-63
2022/01/29 09:08:06;;;;;;;;;;;9.30;99.90;;;;;;5024329;28;20045;-63
2022/01/29 09:10:32;;;;;;;15.85;6.90;;;9.30;99.90;;;;;;5025369;28;19964;-64
2022/01/29 09:12:58;;;;;;;13.18;6.32;;;9.30;99.90;;;;;;5007707;28;20046;-63
2022/01/29 09:15:24;;;;;;;15.07;6.75;;;9.40;99.90;;;;;;5025300;28;20038;-63
2022/01/29 09:17:50;;;;;;;13.68;5.97;;;9.40;99.90;;;;;;5034828;28;20465;-64
2022/01/29 09:20:16;;;;;;;14.13;6.15;;;9.40;99.90;;;;;;5044957;28;20084;-63
2022/01/29 09:22:42;;;;;;;12.13;6.23;;;9.50;99.90;;;;;;5027269;28;20049;-61
2022/01/29 09:25:08;;;;;;;12.40;7.22;;;9.50;99.90;;;;;;5043769;28;20120;-63
2022/01/29 09:27:34;;;;;;;14.77;6.70;;;9.50;99.90;;;;;;5043641;28;20115;-62
2022/01/29 09:30:00;;;;;;;14.13;6.35;;;9.50;99.90;;;;;;5044357;28;20056;-63
2022/01/29 09:32:26;;;;;;;11.65;5.72;;;9.40;99.90;;;;;;5023223;28;20045;-65
2022/01/29 09:34:51;;;;;;;18.15;6.28;;;9.50;99.90;;;;;;5023893;28;20081;-63
2022/01/29 09:37:17;;;;;;;11.07;5.53;;;9.50;99.90;;;;;;5041731;28;20090;-63
2022/01/29 09:39:43;;;;;;;9.55;5.25;;;9.50;99.90;;;;;;5038996;28;20042;-64
2022/01/29 09:42:10;;;;;;;17.17;6.70;;;9.50;99.90;;;;;;5040025;28;20085;-65
2022/01/29 09:44:36;;;;;;;11.95;5.35;;;9.50;99.90;;;;;;5015957;28;20397;-65
2022/01/29 09:47:05;;;;;;;10.70;4.93;;;9.50;99.90;;;;;;5024795;28;20101;-65
2022/01/29 09:49:34;;;;;;;15.25;5.70;;;9.60;99.90;;;;;;5045501;28;20089;-64
2022/01/29 09:52:03;;;;;;;13.18;5.05;;;9.60;99.90;;;;;;5023176;28;20085;-65
2022/01/29 09:54:29;;;;;;;9.93;5.50;;;9.70;99.90;;;;;;5035145;28;20067;-66
2022/01/29 09:56:55;;;;;;;8.85;4.85;;;9.70;99.90;;;;;;5044663;28;20459;-65
2022/01/29 09:59:21;;;;;;;10.52;4.25;;;9.70;99.90;;;;;;5043601;28;20054;-67
2022/01/29 10:01:47;;;;;;;13.30;5.15;;;9.70;99.90;;;;;;5042959;28;20045;-65
2022/01/29 10:04:13;;;;;;;10.00;4.43;;;9.70;99.90;;;;;;5044157;28;20091;-65
2022/01/29 10:06:42;;;;;;;13.48;4.85;;;9.80;99.90;;;;;;5042852;28;20105;-64
2022/01/29 10:09:11;;;;;;;9.85;4.22;;;9.80;99.90;;;;;;5025945;28;20065;-64
2022/01/29 10:11:38;;;;;;;15.57;4.50;;;9.80;99.90;;;;;;5042673;28;20100;-64
2022/01/29 10:14:05;;;;;;;12.75;4.35;;;9.80;99.90;;;;;;5043817;28;20065;-64
2022/01/29 10:16:33;;;;;;;13.73;4.22;;;9.80;99.90;;;;;;5042276;28;20053;-65
2022/01/29 10:19:13;;;;;;;8.00;4.07;;;9.90;99.90;;;;;;5042507;28;20076;-65
2022/01/29 10:21:46;;;;;;;10.68;4.05;;;9.80;99.90;;;;;;5042097;28;20081;-64
2022/01/29 10:24:18;;;;;;;13.77;4.55;;;9.80;99.90;;;;;;5043825;28;20065;-65
2022/01/29 10:26:49;;;;;;;10.13;3.97;;;9.90;99.90;;;;;;5042046;28;20069;-64
2022/01/29 10:29:23;;;;;;;9.13;3.80;;;9.90;99.90;;;;;;5042091;28;20056;-64
2022/01/29 10:31:51;;;;;;;10.98;3.72;;;9.90;99.90;;;;;;5041561;28;20045;-64
2022/01/29 10:34:17;;;;;;;10.85;3.58;;;9.90;99.90;;;;;;5042329;28;20072;-64
2022/01/29 10:36:42;;;;;;;11.00;3.57;;;10.00;99.90;;;;;;5043744;28;20107;-64
2022/01/29 10:39:08;;;;;;;14.98;3.72;;;10.00;99.90;;;;;;5042174;28;20037;-64
2022/01/29 10:41:34;;;;;;;9.70;3.50;;;10.00;99.90;;;;;;5043343;28;20445;-65
2022/01/29 10:44:20;;;;;;;11.77;3.55;;;10.00;99.90;;;;;;5041964;28;20046;-64
2022/01/29 10:46:50;;;;;;;10.10;3.00;;;10.00;99.90;;;;;;5043110;28;20053;-64
2022/01/29 10:49:29;;;;;;;10.02;3.10;;;10.00;99.90;;;;;;5041996;28;20377;-64
2022/01/29 10:52:08;;;;;;;10.68;3.13;;;10.10;99.90;;;;;;5042637;28;20095;-64
2022/01/29 10:54:36;;;;;;;15.65;4.03;;;10.10;99.90;;;;;;5043509;28;20409;-64
2022/01/29 10:57:03;;;;;;;8.43;3.05;;;10.10;99.90;;;;;;5043005;28;20125;-64
2022/01/29 10:59:32;;;;;;;10.07;3.15;;;10.10;99.90;;;;;;5041634;28;20136;-65
2022/01/29 11:02:00;;;;;;;15.35;3.72;;;10.10;99.90;;;;;;5040925;28;20124;-67
2022/01/29 11:04:29;;;;;;;11.02;3.72;;;10.10;99.90;;;;;;5041609;28;20045;-66
2022/01/29 11:06:59;;;;;;;10.75;3.45;;;10.20;99.90;;;;;;5041218;28;20077;-66
2022/01/29 11:09:27;;;;;;;9.82;3.35;;;10.10;99.90;;;;;;5043246;28;20045;-67
2022/01/29 11:11:54;;;;;;;11.57;3.60;;;10.20;99.90;;;;;;5025613;28;20046;-67
2022/01/29 11:14:22;;;;;;;11.27;3.85;;;10.20;99.90;;;;;;5042841;28;20117;-67
2022/01/29 11:16:48;;;;;;;9.40;2.80;;;10.20;99.90;;;;;;5042495;28;20053;-67
2022/01/29 11:19:14;;;;;;;;;;;10.20;99.90;;;;;;5042176;28;20067;-66
2022/01/29 11:21:43;;;;;;;10.88;3.28;;;10.10;99.90;;;;;;5043706;28;19923;-68
2022/01/29 11:24:11;;;;;;;9.52;3.17;;;10.20;99.90;;;;;;5044322;28;20120;-67
2022/01/29 11:26:39;;;;;;;14.07;3.85;;;10.20;99.90;;;;;;5042517;28;20064;-67
2022/01/29 11:29:25;;;;;;;11.02;3.47;;;10.30;99.90;;;;;;5042111;28;20521;-68
2022/01/29 11:32:20;;;;;;;9.73;3.72;;;10.30;99.90;;;;;;5041901;28;20104;-67
2022/01/29 11:35:06;;;;;;;6.70;2.70;;;10.20;99.90;;;;;;5039075;28;20121;-67
2022/01/29 11:37:57;;;;;;;11.82;3.45;;;10.20;99.90;;;;;;5040095;28;20041;-65
2022/01/29 11:40:34;;;;;;;11.60;3.60;;;10.30;99.90;;;;;;5042325;28;20042;-65
2022/01/29 11:43:06;;;;;;;10.88;3.78;;;10.30;99.90;;;;;;5041178;28;20047;-65
2022/01/29 11:45:43;;;;;;;12.52;3.53;;;10.30;99.90;;;;;;5040633;28;20144;-63
2022/01/29 11:48:30;;;;;;;12.77;3.15;;;10.30;99.90;;;;;;5041363;28;20087;-64
2022/01/29 11:50:57;;;;;;;12.95;3.58;;;10.30;99.90;;;;;;5049451;28;20060;-64
2022/01/29 11:53:25;;;;;;;9.95;3.15;;;10.40;99.90;;;;;;5041183;28;20053;-64
2022/01/29 11:55:55;;;;;;;10.70;3.13;;;10.40;99.90;;;;;;5042188;28;20116;-64
2022/01/29 11:58:27;;;;;;;9.70;3.40;;;10.40;99.90;;;;;;5040823;28;20059;-65
2022/01/29 12:00:58;;;;;;;10.27;2.88;;;10.40;99.90;;;;;;5040909;28;20492;-66
2022/01/29 12:08:59;;;;;;;12.48;3.50;;;10.60;99.90;;;;;;5040751;28;20059;-64
2022/01/29 12:11:25;;;;;;;18.23;2.85;;;10.70;99.90;;;;;;5040293;28;20071;-65
2022/01/29 12:14:23;;;;;;;8.50;2.47;;;10.70;99.90;;;;;;5042838;28;20109;-68
2022/01/29 12:16:56;;;;;;;16.80;3.40;;;10.70;99.90;;;;;;5029259;28;20428;-68
2022/01/29 12:19:39;;;;;;;8.13;2.60;;;10.80;99.90;;;;;;5021448;28;20054;-67
2022/01/29 12:22:21;;;;;;;7.28;2.55;;;10.80;99.90;;;;;;5050006;28;20072;-68
2022/01/29 12:24:56;;;;;;;9.38;2.97;;;10.80;99.90;;;;;;5043801;28;20056;-67
2022/01/29 12:27:23;;;;;;;10.30;3.17;;;10.90;99.90;;;;;;5046112;28;20049;-67
2022/01/29 12:29:50;;;;;;;8.55;2.67;;;10.80;99.90;;;;;;5046324;28;20041;-67
2022/01/29 12:32:15;;;;;;;;;;;10.90;99.90;;;;;;5046021;28;20096;-67
2022/01/29 12:34:53;;;;;;;11.45;2.80;;;10.80;99.90;;;;;;5044703;28;19928;-67
2022/01/29 12:37:19;;;;;;;11.57;2.78;;;10.90;99.90;;;;;;5025092;28;20050;-67
2022/01/29 12:39:48;;;;;;;11.75;2.70;;;11.00;99.90;;;;;;5025974;28;20092;-68
2022/01/29 12:44:54;;;;;;;10.02;2.90;;;11.10;99.90;;;;;;5046228;28;20126;-66
2022/01/29 12:47:37;;;;;;;12.63;2.90;;;11.10;99.90;;;;;;5032154;28;20116;-65
2022/01/29 12:50:05;;;;;;;12.43;3.33;;;11.00;99.90;;;;;;5045209;28;20064;-67
2022/01/29 12:52:31;;;;;;;12.48;3.22;;;11.10;99.90;;;;;;5045263;28;20054;-67
2022/01/29 12:55:02;;;;;;;17.23;4.13;;;11.10;99.90;;;;;;5045281;28;20071;-67
2022/01/29 12:57:47;;;;;;;10.82;3.22;;;11.10;99.90;;;;;;5045098;28;20050;-67
2022/01/29 13:00:18;;;;;;;10.68;2.95;;;11.10;99.90;;;;;;5046526;28;20097;-67
2022/01/29 13:02:44;;;;;;;14.40;3.08;;;11.10;99.90;;;;;;5044298;28;20088;-66
2022/01/29 13:05:11;;;;;;;11.73;3.10;;;11.10;99.90;;;;;;5038061;28;20053;-67
2022/01/29 13:07:38;;;;;;;;;;;11.10;99.90;;;;;;5045284;28;20053;-67